Home > Products > Valid Products > MTR

000
SAZS31 NSTU 030652
MTRPPG
METAR NSTU 030651Z 10007KT 10SM SCT018 29/25 A2976 RMK SLP078
T02900253=




000
SAZS31 NSTU 030600
MTRPPG
METAR NSTU 030556Z VRB05KT 12SM FEW022 BKN200 29/25 A2974 RMK SLP073
 8/102 T02900254 10318 20290 51012=




000
SAZS31 NSTU 030600
MTRPPG
METAR NSTU 030556Z VRB05KT 12SM FEW022 BKN200 29/25 A2974 RMK SLP073
 8/102 T02900254 10318 20290 51012=




000
SAZS31 NSTU 030452
MTRPPG
METAR NSTU 030450Z 09008KT 12SM FEW019 BKN220 30/25 A2971 RMK SLP061
 T02980253=




000
SAZS31 NSTU 030452
MTRPPG
METAR NSTU 030450Z 09008KT 12SM FEW019 BKN220 30/25 A2971 RMK SLP061
 T02980253=




000
SAZS31 NSTU 030400
MTRPPG
METAR NSTU 030358Z 10007KT 12SM FEW016TCU FEW025 SCT220 31/26 A2971
RMK TCU S AND NW SLP061 T03050256=




000
SAZS31 NSTU 030254
MTRPPG
METAR NSTU 030252Z 10008KT 12SM FEW016CB SCT025 BKN220 31/26 A2971
RMK CB NW SLP061 8/302 T03130261 56014=




000
SAZS31 NSTU 030254
MTRPPG
METAR NSTU 030252Z 10008KT 12SM FEW016CB SCT025 BKN220 31/26 A2971
RMK CB NW SLP061 8/302 T03130261 56014=




000
SAZS31 NSTU 030159
MTRPPG
METAR NSTU 030155Z 10010KT 12SM FEW016CB SCT025 BKN100 32/27 A2971
RMK CB W-NW SLP061 T03180266=




000
SAZS31 NSTU 030057
MTRPPG
METAR NSTU 030054Z 10009KT 12SM SCT018TCU SCT040 BKN100 32/27 A2972
RMK TCU SE SLP066 T03180269=




000
SAZS31 NSTU 030057
MTRPPG
METAR NSTU 030054Z 10009KT 12SM SCT018TCU SCT040 BKN100 32/27 A2972
RMK TCU SE SLP066 T03180269=




000
SAZS31 NSTU 022354
MTRPPG
METAR NSTU 022350Z 09010KT 12SM SCT018 BKN040 32/27 A2975 RMK
SHRAB01E20 SLP075 60000 8/400 T03160267 10316 20280 57012=




000
SAZS31 NSTU 022354
MTRPPG
METAR NSTU 022350Z 09010KT 12SM SCT018 BKN040 32/27 A2975 RMK
SHRAB01E20 SLP075 60000 8/400 T03160267 10316 20280 57012=




000
SAZS31 NSTU 022252
MTRPPG
METAR NSTU 022250Z 07013G19KT 10SM SCT016TCU BKN040 BKN100 31/27
A2977 RMK TCU NW-N-NE SLP083 T03140265=




000
SAZS31 NSTU 022252
MTRPPG
METAR NSTU 022250Z 07013G19KT 10SM SCT016TCU BKN040 BKN100 31/27
A2977 RMK TCU NW-N-NE SLP083 T03140265=




000
SAZS31 NSTU 022156
MTRPPG
METAR NSTU 022154Z 10010KT 12SM SCT018TCU BKN045 BKN100 31/27 A2978
RMK TCU NW-N-NE SLP085 T03050269=




000
SAZS31 NSTU 022156
MTRPPG
METAR NSTU 022154Z 10010KT 12SM SCT018TCU BKN045 BKN100 31/27 A2978
RMK TCU NW-N-NE SLP085 T03050269=




000
SAZS31 NSTU 022104
MTRPPG
METAR NSTU 022057Z 09011KT 12SM SCT018TCU SCT045 BKN100 BKN200 31/26
A2978 RMK TCU NW-N-NE SLP086 8/351 T03090264 52014=




000
SAZS31 NSTU 022104
MTRPPG
METAR NSTU 022057Z 09011KT 12SM SCT018TCU SCT045 BKN100 BKN200 31/26
A2978 RMK TCU NW-N-NE SLP086 8/351 T03090264 52014=




000
SAZS31 NSTU 021953
MTRPPG
METAR NSTU 021950Z 08013KT 12SM SCT018CB SCT045 BKN100 BKN200 28/26
A2978 RMK CB W-N-NE SLP086 T02830263=




000
SAZS31 NSTU 021858
MTRPPG
METAR NSTU 021852Z 09011KT 12SM FEW018TCU SCT045 BKN180 29/26 A2977
RMK TCU N-E SLP081 T02910255=




000
SAZS31 NSTU 021858
MTRPPG
METAR NSTU 021852Z 09011KT 12SM FEW018TCU SCT045 BKN180 29/26 A2977
RMK TCU N-E SLP081 T02910255=




000
SAZS31 NSTU 021858
MTRPPG
METAR NSTU 021852Z 09011KT 12SM FEW018TCU SCT045 BKN180 29/26 A2977
RMK TCU N-E SLP081 T02910255=




000
SAZS31 NSTU 021800
MTRPPG
METAR NSTU 021750Z 10010KT 12SM FEW014 SCT018TCU SCT045 BKN200 28/25
A2974 RMK TCU N-E SLP073 8/201 T02800251 10281 20276 51010=




000
SAZS31 NSTU 021800
MTRPPG
METAR NSTU 021750Z 10010KT 12SM FEW014 SCT018TCU SCT045 BKN200 28/25
A2974 RMK TCU N-E SLP073 8/201 T02800251 10281 20276 51010=




000
SAZS31 NSTU 021702
MTRPPG
METAR NSTU 021650Z 11007KT 10SM SCT018TCU SCT045 28/26 A2974 RMK TCU
NW-NE-E SLP071 T02770255=




000
SAZS31 NSTU 021702
MTRPPG
METAR NSTU 021650Z 11007KT 10SM SCT018TCU SCT045 28/26 A2974 RMK TCU
NW-NE-E SLP071 T02770255=




000
SAZS31 NSTU 021610
MTRPPG
METAR NSTU 021550Z 12010KT 10SM SCT023 BKN045 28/25 A2973 RMK SLP068
T02770250=




000
SAZS31 NSTU 021610
MTRPPG
METAR NSTU 021550Z 12010KT 10SM SCT023 BKN045 28/25 A2973 RMK SLP068
T02770250=




000
SAZS31 NSTU 021459
MTRPPG
METAR NSTU 021456Z 11011KT 10SM SCT021 SCT045 28/26 A2971 RMK SLP063
8/800 T02810257 56014=




000
SAZS31 NSTU 021401
MTRPPG
METAR NSTU 021358Z 09009KT 10SM SCT021 SCT045 28/25 A2972 RMK SLP064
T02760253=




000
SAZS31 NSTU 021254
MTRPPG
METAR NSTU 021250Z 11011KT 10SM SCT021TCU SCT045 28/26 A2974 RMK TCU
OHD SLP073 T02810257=




000
SAZS31 NSTU 021154
MTRPPG
METAR NSTU 021150Z 09011KT 10SM SCT021 SCT045 28/25 A2976 RMK SLP076
60013 70013 8/800 T02800254 10291 20264 57010=




000
SAZS31 NSTU 021052
MTRPPG
METAR NSTU 021050Z 08009KT 10SM SCT018TCU SCT045 27/26 A2978 RMK
SHRAB30E45 TCU SW-NW SLP085 T02740258 403190265=




000
SAZS31 NSTU 020952
MTRPPG
METAR NSTU 020950Z VRB03KT 10SM FEW018 FEW045 27/25 A2978 RMK SLP085
 T02680246=




000
SAZS31 NSTU 020853
MTRPPG
METAR NSTU 020850Z 07006KT 10SM -SHRA SCT018TCU BKN100 26/25 A2978
RMK SHRAB01 TCU NW-NE SLP086 60011 8/270 T02640245 51020=




000
SAZS31 NSTU 020853
MTRPPG
METAR NSTU 020850Z 07006KT 10SM -SHRA SCT018TCU BKN100 26/25 A2978
RMK SHRAB01 TCU NW-NE SLP086 60011 8/270 T02640245 51020=




000
SAZS31 NSTU 020756
MTRPPG
METAR NSTU 020651Z 09010KT 10SM FEW018 29/25 A2974 RMK SLP071
T02890253=




000
SAZS31 NSTU 020555
MTRPPG
METAR NSTU 020550Z 10011KT 12SM FEW018 SCT200 29/25 A2972 RMK SLP066
 8/101 T02910251 10319 20291 51010=




000
SAZS31 NSTU 020555
MTRPPG
METAR NSTU 020550Z 10011KT 12SM FEW018 SCT200 29/25 A2972 RMK SLP066
 8/101 T02910251 10319 20291 51010=




000
SAZS31 NSTU 020457
MTRPPG
METAR NSTU 020456Z 09009KT 12SM SCT021 SCT200 30/25 A2970 RMK SLP059
 T02970250=




000
SAZS31 NSTU 020457
MTRPPG
METAR NSTU 020456Z 09009KT 12SM SCT021 SCT200 30/25 A2970 RMK SLP059
 T02970250=




000
SAZS31 NSTU 020421
MTRPPG
METAR NSTU 020350Z 06008KT 12SM SCT021 31/26 A2969 RMK SLP056
T03100259=




000
SAZS31 NSTU 020421
MTRPPG
METAR NSTU 020350Z 06008KT 12SM SCT021 31/26 A2969 RMK SLP056
T03100259=




000
SAZS31 NSTU 020420
MTRPPG
METAR NSTU 020250Z 08009KT 12SM FEW025 SCT220 31/25 A2969 RMK SLP056
 8/101 T03080250 56015=




000
SAZS31 NSTU 020420
MTRPPG
METAR NSTU 020250Z 08009KT 12SM FEW025 SCT220 31/25 A2969 RMK SLP056
 8/101 T03080250 56015=




000
SAZS31 NSTU 020153
MTRPPG
METAR NSTU 020151Z 09013KT 12SM FEW025 SCT220 32/26 A2970 RMK SLP058
 T03190262=




000
SAZS31 NSTU 020153
MTRPPG
METAR NSTU 020151Z 09013KT 12SM FEW025 SCT220 32/26 A2970 RMK SLP058
 T03190262=




000
SAZS31 NSTU 020053
MTRPPG
METAR NSTU 020051Z 10011KT 12SM SCT025 SCT240 32/26 A2971 RMK SLP063
T03190264=




000
SAZS31 NSTU 020053
MTRPPG
METAR NSTU 020051Z 10011KT 12SM SCT025 SCT240 32/26 A2971 RMK SLP063
T03190264=




000
SAZS31 NSTU 012353
MTRPPG
METAR NSTU 012350Z 09012KT 12SM SCT025 SCT240 32/26 A2974 RMK SLP071
8/101 T03190262 10319 20282 56014=




000
SAZS31 NSTU 012353
MTRPPG
METAR NSTU 012350Z 09012KT 12SM SCT025 SCT240 32/26 A2974 RMK SLP071
8/101 T03190262 10319 20282 56014=




000
SAZS31 NSTU 012251
MTRPPG
METAR NSTU 012250Z 07011KT 12SM SCT025 SCT240 32/26 A2975 RMK SLP076
T03150261=




000
SAZS31 NSTU 012251
MTRPPG
METAR NSTU 012250Z 07011KT 12SM SCT025 SCT240 32/26 A2975 RMK SLP076
T03150261=




000
SAZS31 NSTU 012153
MTRPPG
METAR NSTU 012151Z 09010KT 12SM FEW025 SCT240 31/26 A2977 RMK SLP081
T03140261=




000
SAZS31 NSTU 012153
MTRPPG
METAR NSTU 012151Z 09010KT 12SM FEW025 SCT240 31/26 A2977 RMK SLP081
T03140261=




000
SAZS31 NSTU 012057
MTRPPG
METAR NSTU 012054Z 08011KT 12SM SCT025 SCT120 BKN240 31/26 A2978 RMK
SLP085 8/171 T03100259 52008=




000
SAZS31 NSTU 012057
MTRPPG
METAR NSTU 012054Z 08011KT 12SM SCT025 SCT120 BKN240 31/26 A2978 RMK
SLP085 8/171 T03100259 52008=




000
SAZS31 NSTU 011952
MTRPPG
METAR NSTU 011950Z 07010KT 12SM SCT021 BKN120 30/26 A2979 RMK SLP086
T03040255=




000
SAZS31 NSTU 011858
MTRPPG
METAR NSTU 011854Z 07010KT 12SM FEW019 SCT110 29/25 A2978 RMK SLP085
T02940250=




000
SAZS31 NSTU 011858
MTRPPG
METAR NSTU 011854Z 07010KT 12SM FEW019 SCT110 29/25 A2978 RMK SLP085
T02940250=




000
SAZS31 NSTU 011754
MTRPPG
METAR NSTU 011751Z 08011KT 12SM FEW019 SCT040 SCT100 28/25 A2975 RMK
SLP076 8/440 T02820247 10282 20265 52010=




000
SAZS31 NSTU 011754
MTRPPG
METAR NSTU 011751Z 08011KT 12SM FEW019 SCT040 SCT100 28/25 A2975 RMK
SLP076 8/440 T02820247 10282 20265 52010=




000
SAZS31 NSTU 011653
MTRPPG
METAR NSTU 011652Z 08010KT 11SM SCT018TCU BKN040 BKN100 28/25 A2974
RMK TCU W-N-NE SLP071 T02800246=




000
SAZS31 NSTU 011653
MTRPPG
METAR NSTU 011652Z 08010KT 11SM SCT018TCU BKN040 BKN100 28/25 A2974
RMK TCU W-N-NE SLP071 T02800246=




000
SAZS31 NSTU 011554
MTRPPG
METAR NSTU 011551Z 08011KT 10SM FEW025 SCT100 BKN180 28/25 A2974 RMK
SLP069 T02810249=




000
SAZS31 NSTU 011554
MTRPPG
METAR NSTU 011551Z 08011KT 10SM FEW025 SCT100 BKN180 28/25 A2974 RMK
SLP069 T02810249=




000
SAZS31 NSTU 011455
MTRPPG
METAR NSTU 011452Z VRB05KT 10SM FEW025 SCT100 BKN180 27/25 A2972 RMK
SLP066 8/152 T02670245 57012=




000
SAZS31 NSTU 011455
MTRPPG
METAR NSTU 011452Z VRB05KT 10SM FEW025 SCT100 BKN180 27/25 A2972 RMK
SLP066 8/152 T02670245 57012=




000
SAZS31 NSTU 011355
MTRPPG
METAR NSTU 011353Z VRB03KT 10SM FEW025 SCT100 27/24 A2973 RMK SLP068
T02650243=




000
SAZS31 NSTU 011253
MTRPPG
METAR NSTU 011252Z VRB03KT 10SM FEW025 SCT100 BKN200 27/24 A2975 RMK
SLP075 T02660243=




000
SAZS31 NSTU 011253
MTRPPG
METAR NSTU 011252Z VRB03KT 10SM FEW025 SCT100 BKN200 27/24 A2975 RMK
SLP075 T02660243=




000
SAZS31 NSTU 011157
MTRPPG
METAR NSTU 011150Z VRB02KT 10SM FEW025 SCT100 BKN200 27/24 A2976 RMK
SLP078 70006 8/118 T02730242 10285 20273 57012=




000
SAZS31 NSTU 011053
MTRPPG
METAR NSTU 011051Z VRB02KT 10SM FEW024 SCT100 BKN200 28/24 A2978 RMK
SLP086 T02780243 403120259=




000
SAZS31 NSTU 010953
MTRPPG
METAR NSTU 010952Z VRB03KT 10SM FEW024 SCT240 28/24 A2980 RMK SLP093
T02790244=




000
SAZS31 NSTU 010953
MTRPPG
METAR NSTU 010952Z VRB03KT 10SM FEW024 SCT240 28/24 A2980 RMK SLP093
T02790244=




000
SAZS31 NSTU 010854
MTRPPG
METAR NSTU 010752Z 06009KT 10SM FEW022 SCT120 BKN220 28/25 A2977 RMK
 SLP083 T02830246=




000
SAZS31 NSTU 010854
MTRPPG
METAR NSTU 010752Z 06009KT 10SM FEW022 SCT120 BKN220 28/25 A2977 RMK
 SLP083 T02830246=




000
SAZS31 NSTU 010651
MTRPPG
METAR NSTU 010650Z 06009KT 10SM FEW022 SCT120 BKN220 28/24 A2975 RMK
 SLP076 T02840242=




000
SAZS31 NSTU 010651
MTRPPG
METAR NSTU 010650Z 06009KT 10SM FEW022 SCT120 BKN220 28/24 A2975 RMK
 SLP076 T02840242=




000
SAZS31 NSTU 010556
MTRPPG
METAR NSTU 010550Z 06010KT 11SM FEW022 SCT120 BKN220 29/24 A2974 RMK
 SLP073 8/175 T02850240 10307 20285 51010=




000
SAZS31 NSTU 010556
MTRPPG
METAR NSTU 010550Z 06010KT 11SM FEW022 SCT120 BKN220 29/24 A2974 RMK
 SLP073 8/175 T02850240 10307 20285 51010=




000
SAZS31 NSTU 010457
MTRPPG
METAR NSTU 010455Z 08010KT 12SM FEW020 FEW050 BKN120 OVC220 29/25
A2974 RMK SLP071 T02870248=




000
SAZS31 NSTU 010457
MTRPPG
METAR NSTU 010455Z 08010KT 12SM FEW020 FEW050 BKN120 OVC220 29/25
A2974 RMK SLP071 T02870248=




000
SAZS31 NSTU 010400
MTRPPG
METAR NSTU 010358Z 08011KT 12SM FEW019 SCT045 BKN110 BKN220 30/25
A2972 RMK SLP064 T02960251=




000
SAZS31 NSTU 010400
MTRPPG
METAR NSTU 010358Z 08011KT 12SM FEW019 SCT045 BKN110 BKN220 30/25
A2972 RMK SLP064 T02960251=




000
SAZS31 NSTU 010256
MTRPPG
METAR NSTU 010255Z 08014KT 12SM FEW019 SCT045 BKN110 BKN220 30/26
A2971 RMK SLP063 8/878 T02960259 56017=




000
SAZS31 NSTU 010256
MTRPPG
METAR NSTU 010255Z 08014KT 12SM FEW019 SCT045 BKN110 BKN220 30/26
A2971 RMK SLP063 8/878 T02960259 56017=




000
SAZS31 NSTU 010154
MTRPPG
METAR NSTU 010152Z 08012KT 12SM FEW019 SCT045 BKN110 BKN220 30/26
A2973 RMK SLP068 T03030255=




000
SAZS31 NSTU 010154
MTRPPG
METAR NSTU 010152Z 08012KT 12SM FEW019 SCT045 BKN110 BKN220 30/26
A2973 RMK SLP068 T03030255=




000
SAZS31 NSTU 010059
MTRPPG
METAR NSTU 010057Z 09012KT 12SM FEW019 SCT045 BKN110 31/26 A2973 RMK
SLP069 T03070263=




000
SAZS31 NSTU 010059
MTRPPG
METAR NSTU 010057Z 09012KT 12SM FEW019 SCT045 BKN110 31/26 A2973 RMK
SLP069 T03070263=




000
SAZS31 NSTU 282355
MTRPPG
METAR NSTU 312351Z 08012KT 12SM SCT016CB SCT045 BKN110 OVC220 30/26
A2976 RMK CB ALQDS SLP080 60000 8/378 T03030256 10312 20262 57007=




000
SAZS31 NSTU 282355
MTRPPG
METAR NSTU 312351Z 08012KT 12SM SCT016CB SCT045 BKN110 OVC220 30/26
A2976 RMK CB ALQDS SLP080 60000 8/378 T03030256 10312 20262 57007=




000
SAZS31 NSTU 282252
MTRPPG
METAR NSTU 282250Z 09011KT 12SM FEW022 BKN110 BKN240 31/26 A2976 RMK
SLP078 T03120261=




000
SAZS31 NSTU 282252
MTRPPG
METAR NSTU 282250Z 09011KT 12SM FEW022 BKN110 BKN240 31/26 A2976 RMK
SLP078 T03120261=




000
SAZS31 NSTU 282209
MTRPPG
METAR NSTU 282152Z 09011KT 12SM SCT022 SCT110 BKN240 31/26 A2978 RMK
SLP085 T03110262=




000
SAZS31 NSTU 282209
MTRPPG
METAR NSTU 282152Z 09011KT 12SM SCT022 SCT110 BKN240 31/26 A2978 RMK
SLP085 T03110262=




000
SAZS31 NSTU 282125
MTRPPG
METAR NSTU 282050Z 09010KT 12SM SCT022 SCT110 BKN240 30/26 A2978 RMK
SLP086 8/171 T03030257 52008=




000
SAZS31 NSTU 281952
MTRPPG
METAR NSTU 281950Z VRB05KT 12SM FEW021 SCT110 BKN240 29/25 A2979 RMK
SLP090 T02930249=




000
SAZS31 NSTU 281952
MTRPPG
METAR NSTU 281950Z VRB05KT 12SM FEW021 SCT110 BKN240 29/25 A2979 RMK
SLP090 T02930249=




000
SAZS31 NSTU 281900
MTRPPG
METAR NSTU 281857Z VRB04KT 12SM SCT021 SCT040 BKN110 29/25 A2979 RMK
SHRAE10 SLP088 T02860253=




000
SAZS31 NSTU 281900
MTRPPG
METAR NSTU 281857Z VRB04KT 12SM SCT021 SCT040 BKN110 29/25 A2979 RMK
SHRAE10 SLP088 T02860253=




000
SAZS31 NSTU 281755
MTRPPG
METAR NSTU 281750Z 00000KT 11SM -SHRA SCT021TCU SCT040 BKN100 BKN180
26/24 A2976 RMK TCU W SLP078 60006 8/878 T02620244 10271 20262
52010=




000
SAZS31 NSTU 281755
MTRPPG
METAR NSTU 281750Z 00000KT 11SM -SHRA SCT021TCU SCT040 BKN100 BKN180
26/24 A2976 RMK TCU W SLP078 60006 8/878 T02620244 10271 20262
52010=




000
SAZS31 NSTU 281654
MTRPPG
METAR NSTU 281651Z VRB03KT 10SM -SHRA SCT017TCU BKN040 OVC100 27/24
A2976 RMK SHRAB10 TCU ALQDS SLP078 T02660238=




000
SAZS31 NSTU 281654
MTRPPG
METAR NSTU 281651Z VRB03KT 10SM -SHRA SCT017TCU BKN040 OVC100 27/24
A2976 RMK SHRAB10 TCU ALQDS SLP078 T02660238=




000
SAZS31 NSTU 281600
MTRPPG
METAR NSTU 281557Z 05009KT 10SM SCT017TCU BKN040 OVC100 27/24 A2974
RMK SHRAE50 TCU N-NE SLP073 T02710237=




000
SAZS31 NSTU 281600
MTRPPG
METAR NSTU 281557Z 05009KT 10SM SCT017TCU BKN040 OVC100 27/24 A2974
RMK SHRAE50 TCU N-NE SLP073 T02710237=




000
SAZS31 NSTU 281459
MTRPPG
METAR NSTU 281457Z 08006KT 10SM -SHRA SCT017TCU BKN040 OVC100 27/25
A2973 RMK SHRAB30 TCU W-N-NE SLP068 60002 8/42/ T02700250 57012=




000
SAZS31 NSTU 281355
MTRPPG
METAR NSTU 281353Z 00000KT 10SM SCT020 BKN100 BKN180 27/25 A2973 RMK
SLP068 T02660251=




000
SAZS31 NSTU 281355
MTRPPG
METAR NSTU 281353Z 00000KT 10SM SCT020 BKN100 BKN180 27/25 A2973 RMK
SLP068 T02660251=




000
SAZS31 NSTU 281257
MTRPPG
METAR NSTU 281254Z VRB03KT 10SM FEW020 SCT050 BKN100 BKN180 26/25
A2974 RMK SLP071 T02640250=




000
SAZS31 NSTU 281257
MTRPPG
METAR NSTU 281254Z VRB03KT 10SM FEW020 SCT050 BKN100 BKN180 26/25
A2974 RMK SLP071 T02640250=




000
SAZS31 NSTU 281154
MTRPPG
METAR NSTU 281151Z VRB03KT 10SM FEW020 SCT050 SCT100 BKN180 27/25
A2976 RMK SLP080 60004 70004 8/448 T02690251 10294 20269 57010=




000
SAZS31 NSTU 281154
MTRPPG
METAR NSTU 281151Z VRB03KT 10SM FEW020 SCT050 SCT100 BKN180 27/25
A2976 RMK SLP080 60004 70004 8/448 T02690251 10294 20269 57010=




000
SAZS31 NSTU 281054
MTRPPG
METAR NSTU 281051Z VRB02KT 10SM FEW020 SCT050 BKN100 BKN180 27/25
A2978 RMK SLP086 T02690252 403230269=




000
SAZS31 NSTU 281054
MTRPPG
METAR NSTU 281051Z VRB02KT 10SM FEW020 SCT050 BKN100 BKN180 27/25
A2978 RMK SLP086 T02690252 403230269=




000
SAZS31 NSTU 280952
MTRPPG
METAR NSTU 280950Z VRB02KT 10SM FEW018 SCT140 BKN220 27/26 A2979 RMK
 SLP090 T02720256=




000
SAZS31 NSTU 280854
MTRPPG
METAR NSTU 280852Z VRB03KT 10SM FEW018 SCT110 SCT220 27/26 A2979 RMK
 SLP090 60004 8/178 T02700256 51022=




000
SAZS31 NSTU 280807
MTRPPG
METAR NSTU 280755Z VRB03KT 10SM FEW018 SCT110 27/25 A2978 RMK
SHRAE15 SLP085 T02690254=




    US Dept of Commerce
    National Oceanic and Atmospheric Administration
    National Weather Service
    1325 East West Highway
    Silver Spring, MD 20910
    Page Author: NWS Internet Services Team
Disclaimer
Information Quality
Credits
Glossary
Privacy Policy
Freedom of Information Act (FOIA)
About Us
Career Opportunities